Terminal Aerodrome Forecast
Issued by NWS Blacksburg, VA

Home | Current Version | Previous Version | Text Only | Print | Product List | Glossary On
Versions: 1 2 3 4 5 6 7 8 9 10 11 12 13 14 15 16 17 18 19 20 21 22 23 24 25 26 27 28
000
FTUS41 KRNK 300820 AAB
TAFLYH
TAF AMD
KLYH 300820Z 3008/3106 VRB03KT P6SM BKN015 OVC040
     FM301700 19006KT P6SM OVC035
     FM302000 19005KT P6SM SCT040
     FM310100 18003KT P6SM SCT250=

USA.gov is the U.S. government's official web portal to all federal, state and local government web resources and services.